METAR UND TAF INFORMATION
LPPT 180730Z 33007KT CAVOK 09/05 Q1022

 FLUGHAFENKARTE

 RUNWAY INFORMATION
Runway 03 Runway length 12484 ft Runway width 148 ft
Runway elevation 331 ft Runway displaced threshold 296 ft Runway heading 22
Runway 21 Runway length 12484 ft Runway width 148 ft
Runway elevation 347 ft Runway displaced threshold 1969 ft Runway heading 202
Runway 17 Runway length 7874 ft Runway width 148 ft
Runway elevation 374 ft Runway displaced threshold 0 ft Runway heading 168
Runway 35 Runway length 7874 ft Runway width 148 ft
Runway elevation 332 ft Runway displaced threshold 492 ft Runway heading 348

 AIRPORT FREQUENCIES
Type APP Name APP Frequency 119.1 MHZ
Type ATIS Name ATIS Frequency 124.15 MHZ
Type CLD Name CLD Frequency 118.95 MHZ
Type GND Name GND Frequency 121.75 MHZ
Type INFO Name INFO Frequency 123.75 MHZ
Type RDO Name RDO Frequency 127.9 MHZ
Type TWR Name TWR Frequency 118.1 MHZ

 AIRPORT NEAR NAVIGATION AIDS
Type NDB Name Caparica Frequency 389 KHZ
Type NDB Name Arruda Frequency 382 KHZ
Type VOR-DME Name Lisboa Frequency 114800 KHZ



Version 5.0.0: Changelog

Impressum | Datenschutzerklärung

Virtual Airlines Manager